createdAt,value
2019-04-11T00:02:06.733Z,70.17
2019-04-11T00:04:38.618Z,70.22
2019-04-11T00:07:10.718Z,70.25
2019-04-11T00:09:42.883Z,70.38
2019-04-11T00:12:14.738Z,70.44
2019-04-11T00:14:46.883Z,70.41
2019-04-11T00:17:19.590Z,70.15
2019-04-11T00:19:51.609Z,70.23
2019-04-11T00:22:24.186Z,70.14
2019-04-11T00:24:55.924Z,70.19
2019-04-11T00:27:28.933Z,70.39
2019-04-11T00:30:01.626Z,70.37
2019-04-11T00:32:34.188Z,70.45
2019-04-11T00:35:07.173Z,70.16
2019-04-11T00:37:39.188Z,70.33
2019-04-11T00:40:11.123Z,71.30
2019-04-11T00:42:43.025Z,71.76
2019-04-11T00:45:15.804Z,71.60
2019-04-11T00:47:47.682Z,71.78
2019-04-11T00:50:19.437Z,71.73
2019-04-11T00:52:51.660Z,71.31
2019-04-11T00:55:23.859Z,71.24
2019-04-11T00:57:55.681Z,71.04
2019-04-11T01:00:29.184Z,71.03
2019-04-11T01:03:03.813Z,71.18
2019-04-11T01:05:37.118Z,71.33
2019-04-11T01:08:09.550Z,71.73
2019-04-11T01:10:43.607Z,71.86
2019-04-11T01:13:17.492Z,72.00
2019-04-11T01:16:01.116Z,72.05
2019-04-11T01:18:33.961Z,71.52
2019-04-11T01:21:06.221Z,71.44
2019-04-11T01:23:38.122Z,71.27
2019-04-11T01:26:10.922Z,71.14
2019-04-11T01:28:42.886Z,70.89
2019-04-11T01:31:17.719Z,70.91
2019-04-11T01:33:49.845Z,70.49
2019-04-11T01:36:22.670Z,70.85
2019-04-11T01:38:57.087Z,71.25
2019-04-11T01:41:28.874Z,71.24
2019-04-11T01:44:04.149Z,71.88
2019-04-11T01:46:34.308Z,72.01
2019-04-11T01:49:17.069Z,72.09
2019-04-11T01:51:49.759Z,72.20
2019-04-11T01:54:22.053Z,72.21
2019-04-11T01:56:55.795Z,72.14
2019-04-11T01:59:29.071Z,72.37
2019-04-11T02:02:23.947Z,72.56
2019-04-11T02:05:08.464Z,72.86
2019-04-11T02:07:40.708Z,72.97
2019-04-11T02:10:12.854Z,73.06
2019-04-11T02:12:45.608Z,73.05
2019-04-11T02:15:17.827Z,73.02
2019-04-11T02:17:52.388Z,72.68
2019-04-11T02:20:24.938Z,72.74
2019-04-11T02:23:04.657Z,72.88
2019-04-11T02:25:54.518Z,72.92
2019-04-11T02:28:26.600Z,72.40
2019-04-11T02:31:00.104Z,72.45
2019-04-11T02:33:32.948Z,72.08
2019-04-11T02:36:07.912Z,72.06
2019-04-11T02:38:41.305Z,72.03
2019-04-11T02:41:14.185Z,71.96
2019-04-11T02:43:46.803Z,71.76
2019-04-11T02:46:28.333Z,71.78
2019-04-11T02:48:54.323Z,72.01
2019-04-11T02:51:27.023Z,71.88
2019-04-11T02:53:59.296Z,71.86
2019-04-11T02:56:31.350Z,72.01
2019-04-11T02:59:05.376Z,72.12
2019-04-11T03:01:37.514Z,72.03
2019-04-11T03:04:10.475Z,72.16
2019-04-11T03:06:43.874Z,72.05
2019-04-11T03:09:17.794Z,72.42
2019-04-11T03:11:51.482Z,71.87
2019-04-11T03:14:23.353Z,71.15
2019-04-11T03:17:02.429Z,71.13
2019-04-11T03:19:42.269Z,71.05
2019-04-11T03:22:03.313Z,71.35
2019-04-11T03:24:36.014Z,71.63
2019-04-11T03:27:10.076Z,71.88
2019-04-11T03:29:43.103Z,71.91
2019-04-11T03:33:11.307Z,71.57
2019-04-11T03:35:34.819Z,71.49
2019-04-11T03:37:51.816Z,71.54
2019-04-11T03:40:19.023Z,71.78
2019-04-11T03:42:44.848Z,71.97
2019-04-11T03:45:25.881Z,71.80
2019-04-11T03:47:52.526Z,71.90
2019-04-11T03:50:16.503Z,72.04
2019-04-11T03:52:45.187Z,72.36
2019-04-11T03:55:17.091Z,71.87
2019-04-11T03:57:49.248Z,71.73
2019-04-11T04:00:24.738Z,71.58
2019-04-11T04:02:57.426Z,71.70
2019-04-11T04:05:32.224Z,71.79
2019-04-11T04:08:04.522Z,71.66
2019-04-11T04:10:39.592Z,71.72
2019-04-11T04:13:16.229Z,71.70
2019-04-11T04:16:03.957Z,71.50
2019-04-11T04:19:05.304Z,71.19
2019-04-11T04:21:47.025Z,71.21
2019-04-11T04:24:37.884Z,71.53
2019-04-11T04:27:09.032Z,71.53
2019-04-11T04:29:41.304Z,71.93
2019-04-11T04:32:14.196Z,72.13
2019-04-11T04:34:48.118Z,72.27
2019-04-11T04:37:21.431Z,72.02
2019-04-11T04:40:13.567Z,71.77
2019-04-11T04:42:33.326Z,71.52
2019-04-11T04:45:02.852Z,71.35
2019-04-11T04:47:42.662Z,71.42
2019-04-11T04:50:11.058Z,71.32
2019-04-11T04:52:43.011Z,71.40
2019-04-11T04:55:14.754Z,71.59
2019-04-11T04:57:46.538Z,71.53
2019-04-11T05:00:18.810Z,71.39
2019-04-11T05:02:52.268Z,70.57
2019-04-11T05:05:24.487Z,70.25
2019-04-11T05:08:00.403Z,70.01
2019-04-11T05:10:32.769Z,69.55
2019-04-11T05:13:05.837Z,69.84
2019-04-11T05:15:38.687Z,69.22
2019-04-11T05:18:11.398Z,69.39
2019-04-11T05:20:44.307Z,69.61
2019-04-11T05:23:16.985Z,69.76
2019-04-11T05:25:48.804Z,69.75
2019-04-11T05:28:21.437Z,69.75
2019-04-11T05:30:53.553Z,69.75
2019-04-11T05:33:25.401Z,69.41
2019-04-11T05:35:58.592Z,69.67
2019-04-11T05:38:30.708Z,69.55
2019-04-11T05:41:02.438Z,69.81
2019-04-11T05:43:37.299Z,69.98
2019-04-11T05:46:25.115Z,70.08
2019-04-11T05:49:03.864Z,70.57
2019-04-11T05:51:39.954Z,71.30
2019-04-11T05:54:10.704Z,71.67
2019-04-11T05:56:43.717Z,72.68
2019-04-11T05:59:21.489Z,73.45
2019-04-11T06:02:02.652Z,73.92
2019-04-11T06:04:50.062Z,74.16
2019-04-11T06:07:46.962Z,74.38
2019-04-11T06:10:20.252Z,74.71
2019-04-11T06:13:10.213Z,74.80
2019-04-11T06:15:44.447Z,74.66
2019-04-11T06:18:37.743Z,74.39
2019-04-11T06:21:14.283Z,74.23
2019-04-11T06:24:03.592Z,74.20
2019-04-11T06:27:02.526Z,74.00
2019-04-11T06:29:39.641Z,73.75
2019-04-11T06:32:29.700Z,73.51
2019-04-11T06:35:06.699Z,73.36
2019-04-11T06:37:59.096Z,73.37
2019-04-11T06:40:36.684Z,73.59
2019-04-11T06:43:30.368Z,73.58
2019-04-11T06:46:36.525Z,73.72
2019-04-11T06:49:14.595Z,73.85
2019-04-11T06:51:50.444Z,73.81
2019-04-11T06:54:28.629Z,73.65
2019-04-11T06:57:01.752Z,73.45
2019-04-11T06:59:37.132Z,73.62
2019-04-11T07:02:18.065Z,73.81
2019-04-11T07:04:54.805Z,73.55
2019-04-11T07:07:29.476Z,73.26
2019-04-11T07:10:04.070Z,73.08
2019-04-11T07:12:59.319Z,72.92
2019-04-11T07:15:37.972Z,72.84
2019-04-11T07:18:27.163Z,72.57
2019-04-11T07:21:08.493Z,72.54
2019-04-11T07:23:57.928Z,72.70
2019-04-11T07:26:38.388Z,72.33
2019-04-11T07:29:33.724Z,72.49
2019-04-11T07:32:09.439Z,72.53
2019-04-11T07:34:59.998Z,72.22
2019-04-11T07:37:53.179Z,72.05
2019-04-11T07:40:43.044Z,72.02
2019-04-11T07:43:35.435Z,71.74
2019-04-11T07:46:27.372Z,71.56
2019-04-11T07:49:04.110Z,70.64
2019-04-11T07:51:46.302Z,69.73
2019-04-11T07:54:20.395Z,69.78
2019-04-11T07:57:03.868Z,69.72
2019-04-11T07:59:55.686Z,69.73
2019-04-11T08:02:45.645Z,69.33
2019-04-11T08:05:37.401Z,69.20
2019-04-11T08:08:37.100Z,69.39
2019-04-11T08:11:16.138Z,69.36
2019-04-11T08:14:12.669Z,69.50
2019-04-11T08:16:59.523Z,68.80
2019-04-11T08:19:51.272Z,68.31
2019-04-11T08:22:37.462Z,67.94
2019-04-11T08:25:27.138Z,68.06
2019-04-11T08:28:05.874Z,68.28
2019-04-11T08:30:50.996Z,68.14
2019-04-11T08:33:24.717Z,68.38
2019-04-11T08:36:22.008Z,68.36
2019-04-11T08:38:54.370Z,68.29
2019-04-11T08:41:59.016Z,68.22
2019-04-11T08:44:34.320Z,67.97
2019-04-11T08:47:09.917Z,67.89
2019-04-11T08:49:48.083Z,67.30
2019-04-11T08:52:31.921Z,67.19
2019-04-11T08:55:10.903Z,67.06
2019-04-11T08:57:45.400Z,66.66
2019-04-11T09:00:40.368Z,66.67
2019-04-11T09:03:56.554Z,66.57
2019-04-11T09:06:23.373Z,66.68
2019-04-11T09:09:13.247Z,66.66
2019-04-11T09:11:58.230Z,66.27
2019-04-11T09:14:48.977Z,65.89
2019-04-11T09:17:28.215Z,66.15
2019-04-11T09:20:19.086Z,65.38
2019-04-11T09:22:53.425Z,64.90
2019-04-11T09:25:43.492Z,64.72
2019-04-11T09:28:17.549Z,64.75
2019-04-11T09:31:09.319Z,64.06
2019-04-11T09:34:17.608Z,63.88
2019-04-11T09:36:58.121Z,63.89
2019-04-11T09:39:48.674Z,64.36
2019-04-11T09:42:40.883Z,64.50
2019-04-11T09:45:35.191Z,65.44
2019-04-11T09:48:33.531Z,65.59
2019-04-11T09:51:40.094Z,63.00
2019-04-11T09:54:32.433Z,62.77
2019-04-11T09:57:26.799Z,62.85
2019-04-11T10:00:26.976Z,61.38
2019-04-11T10:03:06.635Z,61.93
2019-04-11T10:06:00.428Z,62.28
2019-04-11T10:08:43.670Z,60.95
2019-04-11T10:11:34.486Z,60.08
2019-04-11T10:14:09.376Z,58.41
2019-04-11T10:17:00.155Z,57.48
2019-04-11T10:19:52.012Z,56.45
2019-04-11T10:22:49.140Z,53.95
2019-04-11T10:25:32.570Z,50.50
2019-04-11T10:28:29.883Z,48.43
2019-04-11T10:31:10.647Z,45.65
2019-04-11T10:34:01.430Z,45.30
2019-04-11T10:36:55.864Z,44.88
2019-04-11T10:39:46.464Z,43.69
2019-04-11T10:42:18.224Z,44.52
2019-04-11T10:45:07.345Z,42.09
2019-04-11T10:47:39.089Z,41.06
2019-04-11T10:50:21.851Z,41.44
2019-04-11T10:52:56.153Z,39.91
2019-04-11T10:55:53.722Z,39.87
2019-04-11T10:58:33.040Z,40.92
2019-04-11T11:01:26.792Z,38.50
2019-04-11T11:04:09.883Z,39.42
2019-04-11T11:06:44.923Z,37.24
2019-04-11T11:09:32.234Z,35.90
2019-04-11T11:12:15.023Z,35.12
2019-04-11T11:15:11.762Z,38.33
2019-04-11T11:18:35.191Z,37.15
2019-04-11T11:21:00.633Z,36.78
2019-04-11T11:23:49.361Z,34.87
2019-04-11T11:26:28.006Z,35.15
2019-04-11T11:29:18.911Z,35.56
2019-04-11T11:31:56.470Z,36.27
2019-04-11T11:34:49.245Z,34.23
2019-04-11T11:37:35.580Z,35.74
2019-04-11T11:40:32.561Z,36.61
2019-04-11T11:43:14.743Z,36.62
2019-04-11T11:46:04.155Z,36.97
2019-04-11T11:48:40.301Z,35.56
2019-04-11T11:51:31.028Z,33.40
2019-04-11T11:54:07.330Z,34.22
2019-04-11T11:56:42.464Z,34.52
2019-04-11T11:59:18.252Z,33.74
2019-04-11T12:01:57.306Z,36.47
2019-04-11T12:04:46.621Z,37.46
2019-04-11T12:07:21.071Z,34.95
2019-04-11T12:10:11.405Z,35.51
2019-04-11T12:13:20.156Z,35.64
2019-04-11T12:16:03.957Z,34.98
2019-04-11T12:18:54.978Z,36.14
2019-04-11T12:21:31.467Z,37.91
2019-04-11T12:24:29.523Z,37.31
2019-04-11T12:27:20.555Z,37.57
2019-04-11T12:30:23.376Z,38.81
2019-04-11T12:33:03.648Z,37.46
2019-04-11T12:35:52.821Z,37.10
2019-04-11T12:38:49.619Z,36.91
2019-04-11T12:41:46.051Z,37.52
2019-04-11T12:44:45.675Z,37.90
2019-04-11T12:47:45.265Z,39.66
2019-04-11T12:50:48.440Z,39.25
2019-04-11T12:53:22.310Z,39.49
2019-04-11T12:56:16.096Z,38.24
2019-04-11T12:58:53.692Z,38.96
2019-04-11T13:01:45.527Z,38.77
2019-04-11T13:04:21.015Z,38.70
2019-04-11T13:07:12.037Z,38.25
2019-04-11T13:10:12.467Z,38.00
2019-04-11T13:13:21.240Z,37.64
2019-04-11T13:16:11.831Z,37.47
2019-04-11T13:19:03.537Z,37.19
2019-04-11T13:22:06.601Z,36.78
2019-04-11T13:25:06.008Z,36.18
2019-04-11T13:27:47.376Z,37.12
2019-04-11T13:30:53.236Z,34.55
2019-04-11T13:33:27.040Z,34.27
2019-04-11T13:36:18.246Z,35.74
2019-04-11T13:38:51.648Z,36.08
2019-04-11T13:42:00.451Z,36.36
2019-04-11T13:44:35.743Z,35.35
2019-04-11T13:47:25.015Z,35.32
2019-04-11T13:49:59.431Z,34.89
2019-04-11T13:52:50.045Z,33.77
2019-04-11T13:55:26.603Z,33.53
2019-04-11T13:58:17.160Z,34.20
2019-04-11T14:00:52.657Z,33.76
2019-04-11T14:03:43.237Z,34.57
2019-04-11T14:06:19.823Z,35.58
2019-04-11T14:09:14.969Z,35.80
2019-04-11T14:11:48.561Z,35.26
2019-04-11T14:14:41.935Z,34.71
2019-04-11T14:17:32.475Z,35.70
2019-04-11T14:20:35.208Z,35.51
2019-04-11T14:23:26.898Z,35.81
2019-04-11T14:26:37.583Z,35.26
2019-04-11T14:29:18.096Z,35.39
2019-04-11T14:31:56.111Z,35.68
2019-04-11T14:34:46.677Z,37.07
2019-04-11T14:37:37.802Z,37.49
2019-04-11T14:40:13.873Z,40.09
2019-04-11T14:43:04.434Z,40.14
2019-04-11T14:46:00.387Z,39.81
2019-04-11T14:48:40.735Z,42.96
2019-04-11T14:51:49.582Z,43.38
2019-04-11T14:54:27.740Z,43.09
2019-04-11T14:57:06.600Z,42.62
2019-04-11T14:59:42.022Z,41.90
2019-04-11T15:02:35.177Z,42.46
2019-04-11T15:05:13.826Z,41.86
2019-04-11T15:07:46.752Z,42.74
2019-04-11T15:10:49.775Z,41.19
2019-04-11T15:13:25.045Z,41.90
2019-04-11T15:16:14.328Z,42.13
2019-04-11T15:18:52.682Z,41.60
2019-04-11T15:21:43.327Z,43.53
2019-04-11T15:24:16.198Z,43.66
2019-04-11T15:27:18.970Z,44.41
2019-04-11T15:29:50.714Z,43.53
2019-04-11T15:32:36.517Z,43.20
2019-04-11T15:35:13.376Z,44.50
2019-04-11T15:38:02.148Z,44.06
2019-04-11T15:40:39.497Z,44.69
2019-04-11T15:43:30.081Z,44.12
2019-04-11T15:46:04.643Z,44.19
2019-04-11T15:48:57.986Z,44.72
2019-04-11T15:51:35.754Z,44.61
2019-04-11T15:54:26.357Z,45.22
2019-04-11T15:57:19.701Z,45.53
2019-04-11T16:00:28.320Z,45.68
2019-04-11T16:03:06.237Z,45.08
2019-04-11T16:06:02.113Z,45.53
2019-04-11T16:08:47.293Z,44.79
2019-04-11T16:11:52.970Z,45.02
2019-04-11T16:14:43.647Z,46.17
2019-04-11T16:17:36.123Z,45.27
2019-04-11T16:20:20.115Z,45.49
2019-04-11T16:23:10.673Z,45.00
2019-04-11T16:25:48.561Z,44.82
2019-04-11T16:28:38.886Z,45.31
2019-04-11T16:31:13.553Z,45.78
2019-04-11T16:34:15.788Z,45.49
2019-04-11T16:36:52.657Z,45.70
2019-04-11T16:39:49.968Z,46.00
2019-04-11T16:42:44.786Z,46.88
2019-04-11T16:45:33.319Z,45.69
2019-04-11T16:48:05.044Z,45.63
2019-04-11T16:50:36.778Z,45.39
2019-04-11T16:53:11.487Z,45.74
2019-04-11T16:55:43.339Z,45.67
2019-04-11T16:58:19.230Z,45.47
2019-04-11T17:00:52.060Z,45.02
2019-04-11T17:03:24.820Z,45.68
2019-04-11T17:06:06.198Z,45.90
2019-04-11T17:08:45.915Z,44.83
2019-04-11T17:11:19.836Z,45.43
2019-04-11T17:13:56.988Z,45.77
2019-04-11T17:16:30.121Z,46.20
2019-04-11T17:19:00.146Z,45.42
2019-04-11T17:21:42.789Z,44.82
2019-04-11T17:24:08.117Z,46.02
2019-04-11T17:26:39.844Z,45.05
2019-04-11T17:29:12.876Z,46.42
2019-04-11T17:31:44.636Z,46.31
2019-04-11T17:34:16.376Z,46.08
2019-04-11T17:36:48.117Z,47.41
2019-04-11T17:39:19.856Z,46.78
2019-04-11T17:41:51.577Z,45.94
2019-04-11T17:44:23.311Z,46.64
2019-04-11T17:46:56.757Z,46.79
2019-04-11T17:49:28.530Z,47.18
2019-04-11T17:52:00.251Z,47.83
2019-04-11T17:54:32.060Z,48.09
2019-04-11T17:57:03.790Z,48.21
2019-04-11T17:59:35.507Z,48.38
2019-04-11T18:02:10.333Z,48.71
2019-04-11T18:04:45.723Z,48.44
2019-04-11T18:07:17.628Z,48.93
2019-04-11T18:09:56.650Z,49.15
2019-04-11T18:12:30.710Z,49.46
2019-04-11T18:15:04.460Z,49.54
2019-04-11T18:17:38.103Z,49.49
2019-04-11T18:20:09.912Z,49.65
2019-04-11T18:22:45.789Z,51.05
2019-04-11T18:25:15.114Z,51.15
2019-04-11T18:27:46.853Z,51.15
2019-04-11T18:30:20.890Z,50.83
2019-04-11T18:32:52.984Z,51.26
2019-04-11T18:35:24.807Z,51.31
2019-04-11T18:37:56.550Z,52.54
2019-04-11T18:40:30.378Z,52.16
2019-04-11T18:43:02.101Z,51.96
2019-04-11T18:45:35.834Z,52.69
2019-04-11T18:48:07.603Z,52.73
2019-04-11T18:50:39.369Z,52.42
2019-04-11T18:53:12.206Z,52.41
2019-04-11T18:55:44.070Z,52.35
2019-04-11T18:58:15.827Z,52.33
2019-04-11T19:00:47.616Z,52.45
2019-04-11T19:03:19.673Z,51.89
2019-04-11T19:05:51.779Z,52.51
2019-04-11T19:08:23.650Z,51.33
2019-04-11T19:10:55.425Z,51.56
2019-04-11T19:13:28.020Z,51.79
2019-04-11T19:15:59.795Z,52.25
2019-04-11T19:18:32.006Z,52.68
2019-04-11T19:21:03.808Z,55.05
2019-04-11T19:23:36.725Z,55.36
2019-04-11T19:26:09.090Z,55.29
2019-04-11T19:28:40.917Z,55.54
2019-04-11T19:31:12.654Z,56.19
2019-04-11T19:33:47.350Z,56.07
2019-04-11T19:36:19.093Z,56.71
2019-04-11T19:38:50.940Z,57.29
2019-04-11T19:41:22.697Z,57.90
2019-04-11T19:43:54.779Z,57.70
2019-04-11T19:46:26.520Z,57.79
2019-04-11T19:48:59.482Z,57.89
2019-04-11T19:51:31.366Z,58.20
2019-04-11T19:54:03.888Z,58.41
2019-04-11T19:56:48.999Z,58.92
2019-04-11T19:59:20.753Z,58.97
2019-04-11T20:01:53.200Z,58.90
2019-04-11T20:04:25.744Z,58.74
2019-04-11T20:07:00.872Z,59.02
2019-04-11T20:09:32.653Z,58.79
2019-04-11T20:12:04.389Z,58.46
2019-04-11T20:14:37.757Z,58.36
2019-04-11T20:17:09.493Z,58.62
2019-04-11T20:19:41.699Z,58.87
2019-04-11T20:22:13.518Z,59.17
2019-04-11T20:24:46.924Z,59.01
2019-04-11T20:27:20.390Z,59.01
2019-04-11T20:29:55.299Z,59.17
2019-04-11T20:32:25.795Z,59.37
2019-04-11T20:34:57.547Z,59.37
2019-04-11T20:37:39.027Z,59.62
2019-04-11T20:40:04.592Z,60.21
2019-04-11T20:42:36.377Z,60.06
2019-04-11T20:45:10.439Z,60.24
2019-04-11T20:47:43.836Z,60.26
2019-04-11T20:50:15.674Z,60.57
2019-04-11T20:52:48.974Z,60.96
2019-04-11T20:55:21.306Z,60.90
2019-04-11T20:57:55.505Z,60.71
2019-04-11T21:00:29.753Z,60.89
2019-04-11T21:03:01.532Z,60.80
2019-04-11T21:05:38.366Z,62.09
2019-04-11T21:08:10.148Z,63.07
2019-04-11T21:10:41.970Z,64.20
2019-04-11T21:13:14.119Z,64.87
2019-04-11T21:15:45.882Z,64.73
2019-04-11T21:18:17.620Z,64.56
2019-04-11T21:20:49.934Z,64.11
2019-04-11T21:23:24.596Z,63.95
2019-04-11T21:25:58.868Z,63.54
2019-04-11T21:28:30.278Z,63.11
2019-04-11T21:31:02.343Z,63.19
2019-04-11T21:33:35.014Z,63.60
2019-04-11T21:36:08.069Z,64.61
2019-04-11T21:38:39.827Z,65.06
2019-04-11T21:41:11.576Z,65.31
2019-04-11T21:43:43.398Z,65.11
2019-04-11T21:46:16.966Z,64.99
2019-04-11T21:48:48.687Z,64.87
2019-04-11T21:51:20.531Z,64.92
2019-04-11T21:53:54.043Z,64.98
2019-04-11T21:56:28.967Z,65.12
2019-04-11T21:59:01.123Z,65.89
2019-04-11T22:01:32.950Z,65.98
2019-04-11T22:04:04.857Z,65.45
2019-04-11T22:06:36.901Z,65.74
2019-04-11T22:09:09.155Z,65.86
2019-04-11T22:11:41.192Z,65.88
2019-04-11T22:14:14.004Z,66.17
2019-04-11T22:16:45.758Z,66.58
2019-04-11T22:19:17.516Z,66.68
2019-04-11T22:21:49.363Z,66.76
2019-04-11T22:24:21.153Z,66.51
2019-04-11T22:26:53.678Z,66.52
2019-04-11T22:29:25.644Z,66.61
2019-04-11T22:31:57.545Z,67.16
2019-04-11T22:34:56.778Z,67.05
2019-04-11T22:37:30.127Z,66.93
2019-04-11T22:40:03.915Z,66.63
2019-04-11T22:42:35.669Z,66.14
2019-04-11T22:45:08.499Z,67.29
2019-04-11T22:47:40.828Z,68.20
2019-04-11T22:50:14.300Z,67.63
2019-04-11T22:52:46.323Z,67.42
2019-04-11T22:55:18.065Z,67.46
2019-04-11T22:57:49.849Z,67.29
2019-04-11T23:00:22.756Z,67.59
2019-04-11T23:03:01.297Z,67.82
2019-04-11T23:05:33.152Z,68.27
2019-04-11T23:08:05.042Z,68.49
2019-04-11T23:10:39.457Z,68.88
2019-04-11T23:13:11.250Z,68.54
2019-04-11T23:15:44.415Z,68.65
2019-04-11T23:18:17.936Z,69.18
2019-04-11T23:20:49.728Z,69.41
2019-04-11T23:23:22.175Z,69.13
2019-04-11T23:25:53.974Z,69.03
2019-04-11T23:28:25.817Z,69.15
2019-04-11T23:30:57.689Z,69.03
2019-04-11T23:33:29.475Z,68.78
2019-04-11T23:36:01.297Z,68.59
2019-04-11T23:38:33.072Z,68.48
2019-04-11T23:41:05.377Z,68.57
2019-04-11T23:43:37.170Z,68.69
2019-04-11T23:46:09.139Z,68.57
2019-04-11T23:48:40.879Z,68.89
2019-04-11T23:51:12.663Z,68.85
2019-04-11T23:53:44.413Z,68.56
2019-04-11T23:56:16.182Z,68.55
2019-04-11T23:58:47.915Z,68.77
